Time;durP1;ratioP1;P1;durP2;ratioP2;P2;SDS_P1;SDS_P2;PMS_P1;PMS_P2;Temp;Humidity;BMP_temperature;BMP_pressure;BME280_temperature;BME280_humidity;BME280_pressure;Samples;Min_cycle;Max_cycle;Signal;HPM_P1;HPM_P2
2023/03/01 00:01:15;;;;;;;20.73;12.18;;;-1.10;99.90;;;;;;6308858;22;20022;-86
2023/03/01 00:03:41;;;;;;;22.08;12.75;;;-1.10;99.90;;;;;;6309090;22;20023;-86
2023/03/01 00:06:07;;;;;;;21.98;13.57;;;-1.10;99.90;;;;;;6283621;22;20137;-86
2023/03/01 00:08:33;;;;;;;21.35;13.10;;;-1.20;99.90;;;;;;6286233;22;20020;-86
2023/03/01 00:11:08;;;;;;;23.25;13.52;;;-1.20;99.90;;;;;;6313069;22;20071;-86
2023/03/01 00:13:35;;;;;;;20.15;12.55;;;-1.20;99.90;;;;;;6282185;22;20019;-86
2023/03/01 00:16:09;;;;;;;20.75;13.40;;;-1.20;99.90;;;;;;6279216;22;20022;-86
2023/03/01 00:18:35;;;;;;;25.08;14.98;;;-1.30;99.90;;;;;;6306589;22;20062;-86
2023/03/01 00:21:01;;;;;;;23.38;14.23;;;-1.30;99.90;;;;;;6305527;22;20007;-86
2023/03/01 00:23:27;;;;;;;22.63;13.50;;;-1.30;99.90;;;;;;6279112;22;20018;-86
2023/03/01 00:25:53;;;;;;;21.30;13.32;;;-1.30;99.90;;;;;;6277726;22;20011;-86
2023/03/01 00:28:19;;;;;;;19.75;13.02;;;-1.30;99.90;;;;;;6306842;22;20042;-86
2023/03/01 00:30:46;;;;;;;19.63;12.73;;;-1.30;99.90;;;;;;6278827;22;20333;-86
2023/03/01 00:33:12;;;;;;;24.23;14.32;;;-1.30;99.90;;;;;;6307056;22;20093;-86
2023/03/01 00:35:38;;;;;;;23.52;13.02;;;-1.30;99.90;;;;;;6279015;22;20449;-85
2023/03/01 00:38:04;;;;;;;22.35;12.65;;;-1.40;99.90;;;;;;6253767;22;20026;-85
2023/03/01 00:40:32;;;;;;;21.00;13.75;;;-1.40;99.90;;;;;;6279525;22;20007;-86
2023/03/01 00:42:57;;;;;;;21.70;12.50;;;-1.40;99.90;;;;;;6281141;22;20022;-86
2023/03/01 00:45:23;;;;;;;20.85;12.48;;;-1.40;99.90;;;;;;6256774;22;20015;-86
2023/03/01 00:47:50;;;;;;;20.60;11.75;;;-1.40;99.90;;;;;;6279251;22;20049;-86
2023/03/01 00:50:16;;;;;;;17.55;11.32;;;-1.40;99.90;;;;;;6306370;22;20018;-86
2023/03/01 00:52:41;;;;;;;22.05;12.40;;;-1.40;99.90;;;;;;6278986;22;20018;-86
2023/03/01 00:55:08;;;;;;;22.27;12.90;;;-1.40;99.90;;;;;;6308208;22;20015;-86
2023/03/01 00:57:33;;;;;;;22.10;12.30;;;-1.40;99.90;;;;;;6281503;22;20033;-86
2023/03/01 00:59:59;;;;;;;23.73;12.63;;;-1.40;99.90;;;;;;6305706;22;20336;-85
2023/03/01 01:02:25;;;;;;;22.52;12.80;;;-1.50;99.90;;;;;;6278748;22;20011;-86
2023/03/01 01:04:51;;;;;;;23.77;12.43;;;-1.50;99.90;;;;;;6278189;22;20011;-86
2023/03/01 01:07:17;;;;;;;22.73;13.23;;;-1.50;99.90;;;;;;6252987;22;20003;-86
2023/03/01 01:09:43;;;;;;;24.45;13.63;;;-1.50;99.90;;;;;;6305028;22;20015;-86
2023/03/01 01:12:08;;;;;;;22.00;13.02;;;-1.50;99.90;;;;;;6305934;22;20019;-86
2023/03/01 01:14:35;;;;;;;22.75;13.68;;;-1.50;99.90;;;;;;6278360;22;20022;-86
2023/03/01 01:17:00;;;;;;;22.73;12.18;;;-1.50;99.90;;;;;;6278036;22;20012;-86
2023/03/01 01:19:27;;;;;;;24.15;13.23;;;-1.60;99.90;;;;;;6305763;22;20050;-86
2023/03/01 01:21:53;;;;;;;23.90;13.38;;;-1.60;99.90;;;;;;6305724;22;20337;-86
2023/03/01 01:24:19;;;;;;;24.02;13.07;;;-1.60;99.90;;;;;;6277928;22;20011;-85
2023/03/01 01:26:45;;;;;;;23.08;12.57;;;-1.60;99.90;;;;;;6277682;22;20022;-86
2023/03/01 01:29:11;;;;;;;25.17;12.90;;;-1.60;99.90;;;;;;6278200;22;20039;-86
2023/03/01 01:31:40;;;;;;;22.88;13.10;;;-1.70;99.90;;;;;;6278522;22;20014;-86
2023/03/01 01:34:12;;;;;;;23.70;13.02;;;-1.70;99.90;;;;;;6309027;22;20007;-86
2023/03/01 01:36:37;;;;;;;25.63;13.93;;;-1.70;99.90;;;;;;6284090;22;20079;-86
2023/03/01 01:39:03;;;;;;;20.77;12.95;;;-1.70;99.90;;;;;;6307534;22;20060;-86
2023/03/01 01:41:29;;;;;;;24.45;14.02;;;-1.80;99.90;;;;;;6306322;22;20019;-86
2023/03/01 01:44:13;;;;;;;23.88;13.57;;;-1.70;99.90;;;;;;6278392;22;20011;-86
2023/03/01 01:46:41;;;;;;;20.63;12.82;;;-1.80;99.90;;;;;;6305528;22;20012;-86
2023/03/01 01:49:32;;;;;;;23.45;13.50;;;-1.90;99.90;;;;;;6278448;22;20114;-86
2023/03/01 01:52:09;;;;;;;22.20;12.38;;;-1.90;99.90;;;;;;6304825;22;20023;-86
2023/03/01 01:54:41;;;;;;;21.38;11.77;;;-1.90;99.90;;;;;;6252944;22;20016;-86
2023/03/01 01:57:13;;;;;;;22.60;13.25;;;-1.90;99.90;;;;;;6278540;22;20087;-86
2023/03/01 01:59:41;;;;;;;21.85;13.70;;;-2.00;99.90;;;;;;6305006;22;20337;-86
2023/03/01 02:02:06;;;;;;;22.73;13.27;;;-2.00;99.90;;;;;;6277860;22;20019;-86
2023/03/01 02:04:32;;;;;;;21.45;13.15;;;-2.00;99.90;;;;;;6305592;22;20090;-87
2023/03/01 02:07:03;;;;;;;22.88;13.43;;;-2.00;99.90;;;;;;6276823;22;20912;-87
2023/03/01 02:09:31;;;;;;;24.60;13.38;;;-2.10;99.90;;;;;;6277938;22;20046;-86
2023/03/01 02:11:58;;;;;;;23.83;12.60;;;-2.10;99.90;;;;;;6277290;22;20023;-87
2023/03/01 02:14:23;;;;;;;22.13;12.63;;;-2.10;99.90;;;;;;6305901;22;20004;-87
2023/03/01 02:16:50;;;;;;;22.08;13.00;;;-2.10;99.90;;;;;;6304491;22;20096;-87
2023/03/01 02:19:56;;;;;;;23.15;12.68;;;-2.10;99.90;;;;;;6277886;22;20011;-87
2023/03/01 02:22:31;;;;;;;23.30;12.20;;;-2.10;99.90;;;;;;6304560;22;20390;-87
2023/03/01 02:25:18;;;;;;;22.65;13.38;;;-2.20;99.90;;;;;;6251325;22;20168;-87
2023/03/01 02:27:51;;;;;;;22.65;13.10;;;-2.20;99.90;;;;;;6251364;22;20011;-87
2023/03/01 02:30:20;;;;;;;21.42;11.88;;;-2.20;99.90;;;;;;6277764;22;20083;-87
2023/03/01 02:32:47;;;;;;;24.38;13.52;;;-2.20;99.90;;;;;;6304536;22;20433;-87
2023/03/01 02:35:15;;;;;;;22.52;13.75;;;-2.20;99.90;;;;;;6277497;22;20431;-87
2023/03/01 02:37:42;;;;;;;20.52;11.88;;;-2.20;99.90;;;;;;6305236;22;20007;-87
2023/03/01 02:40:17;;;;;;;20.58;12.27;;;-2.20;99.90;;;;;;6278009;22;20022;-86
2023/03/01 02:42:57;;;;;;;24.20;13.07;;;-2.20;99.90;;;;;;6277357;22;20057;-87
2023/03/01 02:45:24;;;;;;;25.20;12.27;;;-2.20;99.90;;;;;;6253673;22;20340;-87
2023/03/01 02:47:50;;;;;;;21.42;12.38;;;-2.20;99.90;;;;;;6277508;22;20064;-87
2023/03/01 02:50:30;;;;;;;20.40;13.25;;;-2.20;99.90;;;;;;6277301;22;20452;-87
2023/03/01 02:53:14;;;;;;;21.45;13.63;;;-2.20;99.90;;;;;;6304983;22;20303;-87
2023/03/01 02:55:40;;;;;;;20.60;12.70;;;-2.30;99.90;;;;;;6277596;22;20359;-87
2023/03/01 02:58:07;;;;;;;18.38;11.80;;;-2.30;99.90;;;;;;6277992;22;20018;-87
2023/03/01 03:00:46;;;;;;;18.58;11.43;;;-2.30;99.90;;;;;;6305448;22;20007;-87
2023/03/01 03:03:20;;;;;;;21.58;12.27;;;-2.30;99.90;;;;;;6305466;22;20321;-87
2023/03/01 03:05:48;;;;;;;20.45;12.23;;;-2.30;99.90;;;;;;6276921;22;20314;-86
2023/03/01 03:08:23;;;;;;;21.08;12.73;;;-2.30;99.90;;;;;;6277810;22;20022;-87
2023/03/01 03:10:49;;;;;;;20.88;12.45;;;-2.30;99.90;;;;;;6304624;22;20007;-87
2023/03/01 03:13:15;;;;;;;18.85;11.27;;;-2.40;99.90;;;;;;6252418;22;20015;-87
2023/03/01 03:15:42;;;;;;;20.70;13.02;;;-2.40;99.90;;;;;;6277208;22;20440;-87
2023/03/01 03:18:15;;;;;;;19.23;12.30;;;-2.40;99.90;;;;;;6277972;22;20019;-87
2023/03/01 03:20:42;;;;;;;20.80;13.18;;;-2.40;99.90;;;;;;6304818;22;20003;-87
2023/03/01 03:23:08;;;;;;;19.77;12.38;;;-2.50;99.90;;;;;;6278636;22;20019;-87
2023/03/01 03:25:37;;;;;;;18.75;12.90;;;-2.40;99.90;;;;;;6278780;22;20015;-87
2023/03/01 03:28:09;;;;;;;20.15;13.00;;;-2.40;99.90;;;;;;6279640;22;20132;-87
2023/03/01 03:30:36;;;;;;;18.58;12.75;;;-2.50;99.90;;;;;;6308624;22;20007;-87
2023/03/01 03:33:02;;;;;;;18.10;11.50;;;-2.50;99.90;;;;;;6308767;22;20051;-87
2023/03/01 03:35:38;;;;;;;21.35;13.60;;;-2.50;99.90;;;;;;6311611;22;20023;-87
2023/03/01 03:38:06;;;;;;;19.50;12.20;;;-2.50;99.90;;;;;;6292606;22;20041;-87
2023/03/01 03:40:38;;;;;;;19.80;12.07;;;-2.50;99.90;;;;;;6297672;22;20034;-87
2023/03/01 03:43:06;;;;;;;18.58;12.90;;;-2.50;99.90;;;;;;6326257;22;20011;-87
2023/03/01 03:45:35;;;;;;;19.25;11.98;;;-2.50;99.90;;;;;;6330547;22;19999;-87
2023/03/01 03:48:02;;;;;;;19.08;12.45;;;-2.50;99.90;;;;;;6324699;22;20022;-87
2023/03/01 03:50:28;;;;;;;23.55;12.23;;;-2.50;99.90;;;;;;6310476;22;20332;-87
2023/03/01 03:52:54;;;;;;;19.23;11.75;;;-2.50;99.90;;;;;;6280808;22;20015;-87
2023/03/01 03:55:20;;;;;;;21.17;13.00;;;-2.60;99.90;;;;;;6307500;22;20071;-87
2023/03/01 03:57:51;;;;;;;19.63;12.75;;;-2.60;99.90;;;;;;6306570;22;20406;-87
2023/03/01 04:00:20;;;;;;;20.30;12.20;;;-2.60;99.90;;;;;;6279508;22;20015;-87
2023/03/01 04:02:47;;;;;;;21.27;13.00;;;-2.60;99.90;;;;;;6252675;22;20102;-87
2023/03/01 04:05:15;;;;;;;19.52;12.40;;;-2.60;99.90;;;;;;6279290;22;20387;-87
2023/03/01 04:07:42;;;;;;;18.30;11.80;;;-2.60;99.90;;;;;;6278673;22;20471;-87
2023/03/01 04:10:11;;;;;;;18.50;11.55;;;-2.60;99.90;;;;;;6279413;22;20419;-86
2023/03/01 04:12:37;;;;;;;20.40;12.98;;;-2.60;99.90;;;;;;6279179;22;20080;-87
2023/03/01 04:15:12;;;;;;;19.77;11.55;;;-2.60;99.90;;;;;;6278817;22;20043;-87
2023/03/01 04:17:39;;;;;;;19.52;12.00;;;-2.60;99.90;;;;;;6252616;22;20094;-87
2023/03/01 04:20:06;;;;;;;17.98;11.10;;;-2.60;99.90;;;;;;6279050;22;20015;-87
2023/03/01 04:22:33;;;;;;;19.20;11.85;;;-2.70;99.90;;;;;;6279076;22;20007;-87
2023/03/01 04:25:05;;;;;;;18.92;11.93;;;-2.70;99.90;;;;;;6278659;22;20500;-87
2023/03/01 04:27:34;;;;;;;19.90;12.38;;;-2.70;99.90;;;;;;6279321;22;20011;-88
2023/03/01 04:30:00;;;;;;;18.55;11.98;;;-2.70;99.90;;;;;;6253537;22;20015;-87
2023/03/01 04:32:25;;;;;;;18.15;11.27;;;-2.70;99.90;;;;;;6279589;22;20397;-87
2023/03/01 04:34:51;;;;;;;18.77;11.82;;;-2.70;99.90;;;;;;6278659;22;20112;-87
2023/03/01 04:37:16;;;;;;;18.80;11.82;;;-2.70;99.90;;;;;;6307233;22;20019;-87
2023/03/01 04:39:45;;;;;;;18.77;11.20;;;-2.70;99.90;;;;;;6278912;22;20090;-87
2023/03/01 04:42:11;;;;;;;16.98;10.32;;;-2.70;99.90;;;;;;6279597;22;20015;-87
2023/03/01 04:44:37;;;;;;;19.08;11.57;;;-2.70;99.90;;;;;;6279096;22;20469;-87
2023/03/01 04:47:03;;;;;;;18.30;10.77;;;-2.80;99.90;;;;;;6277956;22;20011;-87
2023/03/01 04:49:29;;;;;;;18.80;11.65;;;-2.80;99.90;;;;;;6279450;22;20075;-87
2023/03/01 04:51:55;;;;;;;19.98;12.07;;;-2.80;99.90;;;;;;6278766;22;20100;-87
2023/03/01 04:54:21;;;;;;;17.65;11.18;;;-2.80;99.90;;;;;;6279409;22;20007;-87
2023/03/01 04:56:47;;;;;;;20.15;11.73;;;-2.80;99.90;;;;;;6308641;22;20065;-88
2023/03/01 04:59:12;;;;;;;18.77;11.98;;;-2.80;99.90;;;;;;6279331;22;20015;-87
2023/03/01 05:01:38;;;;;;;18.88;11.18;;;-2.80;99.90;;;;;;6278168;22;20022;-88
2023/03/01 05:04:05;;;;;;;18.10;11.30;;;-2.80;99.90;;;;;;6279335;22;20133;-87
2023/03/01 05:06:31;;;;;;;19.30;12.25;;;-2.80;99.90;;;;;;6306452;22;20014;-87
2023/03/01 05:08:56;;;;;;;19.48;12.23;;;-2.80;99.90;;;;;;6306199;22;20345;-87
2023/03/01 05:11:22;;;;;;;19.73;12.00;;;-2.80;99.90;;;;;;6305943;22;20051;-87
2023/03/01 05:13:49;;;;;;;18.33;11.32;;;-2.80;99.90;;;;;;6252385;22;20019;-87
2023/03/01 05:16:16;;;;;;;17.95;10.75;;;-2.80;99.90;;;;;;6305702;22;20037;-87
2023/03/01 05:18:43;;;;;;;18.55;11.73;;;-2.90;99.90;;;;;;6305358;22;20011;-88
2023/03/01 05:21:15;;;;;;;18.35;11.98;;;-2.90;99.90;;;;;;6278373;22;20056;-87
2023/03/01 05:23:41;;;;;;;19.83;11.88;;;-2.90;99.90;;;;;;6305977;22;20007;-87
2023/03/01 05:26:07;;;;;;;17.58;11.90;;;-2.90;99.90;;;;;;6278469;22;20118;-88
2023/03/01 05:28:34;;;;;;;20.92;11.98;;;-2.90;99.90;;;;;;6306526;22;20485;-87
2023/03/01 05:30:59;;;;;;;20.10;12.35;;;-2.90;99.90;;;;;;6278017;22;20367;-87
2023/03/01 05:33:25;;;;;;;19.55;12.27;;;-2.90;99.90;;;;;;6306422;22;20011;-87
2023/03/01 05:35:52;;;;;;;20.50;12.90;;;-2.90;99.90;;;;;;6305622;22;20060;-87
2023/03/01 05:38:18;;;;;;;19.77;12.63;;;-2.80;99.90;;;;;;6305921;22;20425;-87
2023/03/01 05:40:45;;;;;;;19.65;11.50;;;-2.80;99.90;;;;;;6278125;22;20145;-88
2023/03/01 05:43:13;;;;;;;21.52;12.88;;;-2.80;99.90;;;;;;6252848;22;20011;-88
2023/03/01 05:45:40;;;;;;;21.17;12.75;;;-2.80;99.90;;;;;;6277274;22;20011;-87
2023/03/01 05:48:07;;;;;;;21.67;13.25;;;-2.80;99.90;;;;;;6278143;22;20428;-87
2023/03/01 05:50:42;;;;;;;22.55;12.48;;;-2.80;99.90;;;;;;6305767;22;20444;-87
2023/03/01 05:53:15;;;;;;;22.42;13.07;;;-2.90;99.90;;;;;;6307174;22;20015;-87
2023/03/01 05:55:42;;;;;;;20.90;13.05;;;-2.90;99.90;;;;;;6283129;22;20015;-87
2023/03/01 05:58:11;;;;;;;20.23;12.40;;;-2.90;99.90;;;;;;6259045;22;20026;-87
2023/03/01 06:00:37;;;;;;;22.63;13.27;;;-2.90;99.90;;;;;;6307196;22;20016;-88
2023/03/01 06:03:03;;;;;;;21.88;13.05;;;-2.90;99.90;;;;;;6305999;22;20009;-87
2023/03/01 06:05:29;;;;;;;22.13;12.82;;;-2.90;99.90;;;;;;6278675;22;20065;-87
2023/03/01 06:07:55;;;;;;;20.75;11.90;;;-3.00;99.90;;;;;;6305322;22;20003;-87
2023/03/01 06:10:22;;;;;;;20.90;12.90;;;-3.00;99.90;;;;;;6278362;22;20051;-87
2023/03/01 06:12:48;;;;;;;19.70;11.65;;;-3.00;99.90;;;;;;6304837;22;20015;-87
2023/03/01 06:15:15;;;;;;;22.65;13.50;;;-3.00;99.90;;;;;;6307251;22;20463;-87
2023/03/01 06:17:43;;;;;;;20.88;12.52;;;-3.00;99.90;;;;;;6306972;22;20011;-87
2023/03/01 06:20:15;;;;;;;22.48;12.88;;;-3.00;99.90;;;;;;6280914;22;20018;-87
2023/03/01 06:22:41;;;;;;;22.17;13.10;;;-2.90;99.90;;;;;;6305859;22;20007;-88
2023/03/01 06:25:08;;;;;;;22.23;13.10;;;-3.00;99.90;;;;;;6306162;22;20448;-87
2023/03/01 06:27:34;;;;;;;22.85;13.30;;;-2.90;99.90;;;;;;6279937;22;20041;-87
2023/03/01 06:29:59;;;;;;;21.65;12.88;;;-3.00;99.90;;;;;;6284074;22;20007;-88
2023/03/01 06:32:25;;;;;;;23.05;13.98;;;-3.00;99.90;;;;;;6309882;22;20011;-87
2023/03/01 06:34:51;;;;;;;22.67;13.48;;;-3.00;99.90;;;;;;6280060;22;20509;-87
2023/03/01 06:37:17;;;;;;;27.58;14.52;;;-3.00;99.90;;;;;;6278952;22;20394;-87
2023/03/01 06:39:42;;;;;;;27.00;14.73;;;-2.90;99.90;;;;;;6305868;22;20014;-87
2023/03/01 06:42:09;;;;;;;24.92;14.25;;;-2.90;99.90;;;;;;6252135;22;20061;-87
2023/03/01 06:44:36;;;;;;;25.38;14.70;;;-2.90;99.90;;;;;;6252542;22;20015;-88
2023/03/01 06:47:03;;;;;;;22.95;14.57;;;-2.90;99.90;;;;;;6305690;22;20003;-87
2023/03/01 06:49:28;;;;;;;24.30;12.85;;;-2.90;99.90;;;;;;6305668;22;20355;-87
2023/03/01 06:51:54;;;;;;;21.35;12.77;;;-2.90;99.90;;;;;;6278080;22;20021;-88
2023/03/01 06:54:22;;;;;;;25.40;13.40;;;-2.90;99.90;;;;;;6305930;22;20022;-88
2023/03/01 06:56:48;;;;;;;22.75;12.95;;;-2.80;99.90;;;;;;6276976;22;20100;-88
2023/03/01 06:59:15;;;;;;;23.85;13.63;;;-2.80;99.90;;;;;;6277890;22;20387;-88
2023/03/01 07:01:40;;;;;;;23.25;13.50;;;-2.80;99.90;;;;;;6305122;22;20011;-88
2023/03/01 07:04:06;;;;;;;22.23;13.32;;;-2.70;99.90;;;;;;6305549;22;20330;-87
2023/03/01 07:06:32;;;;;;;24.58;13.98;;;-2.70;99.90;;;;;;6278975;22;20011;-88
2023/03/01 07:08:58;;;;;;;25.67;14.73;;;-2.60;99.90;;;;;;6279951;22;20088;-88
2023/03/01 07:11:23;;;;;;;22.40;13.98;;;-2.60;99.90;;;;;;6279224;22;20094;-87
2023/03/01 07:13:49;;;;;;;25.77;14.52;;;-2.50;99.90;;;;;;6252364;22;20090;-87
2023/03/01 07:16:15;;;;;;;24.35;13.75;;;-2.50;99.90;;;;;;6279152;22;20086;-87
2023/03/01 07:18:41;;;;;;;22.85;13.85;;;-2.40;99.90;;;;;;6279578;22;20436;-87
2023/03/01 07:21:08;;;;;;;27.10;14.00;;;-2.40;99.90;;;;;;6281498;22;20075;-88
2023/03/01 07:23:34;;;;;;;25.00;14.45;;;-2.40;99.90;;;;;;6291373;22;20011;-87
2023/03/01 07:26:00;;;;;;;28.15;15.25;;;-2.30;99.90;;;;;;6300734;22;20003;-87
2023/03/01 07:28:27;;;;;;;25.25;15.32;;;-2.20;99.90;;;;;;6300433;22;20059;-87
2023/03/01 07:30:53;;;;;;;24.25;13.43;;;-2.20;99.90;;;;;;6280057;22;20074;-87
2023/03/01 07:33:19;;;;;;;23.60;13.35;;;-2.10;99.90;;;;;;6279827;22;20115;-87
2023/03/01 07:35:44;;;;;;;25.15;15.25;;;-2.10;99.90;;;;;;6304966;22;20042;-87
2023/03/01 07:38:10;;;;;;;25.70;14.57;;;-2.00;99.90;;;;;;6278172;22;20034;-87
2023/03/01 07:40:36;;;;;;;26.92;14.80;;;-1.90;99.90;;;;;;6278052;22;20015;-87
2023/03/01 07:43:02;;;;;;;28.30;16.40;;;-1.90;99.90;;;;;;6277414;22;20386;-86
2023/03/01 07:45:28;;;;;;;28.58;15.30;;;-1.80;99.90;;;;;;6305416;22;20007;-87
2023/03/01 07:47:55;;;;;;;28.60;15.27;;;-1.80;99.90;;;;;;6277588;22;20014;-86
2023/03/01 07:50:21;;;;;;;25.92;15.85;;;-1.70;99.90;;;;;;6278158;22;20012;-86
2023/03/01 07:52:49;;;;;;;28.25;15.50;;;-1.60;99.90;;;;;;6277011;22;20016;-86
2023/03/01 07:55:15;;;;;;;25.48;15.63;;;-1.60;99.90;;;;;;6277317;22;20517;-86
2023/03/01 07:57:42;;;;;;;29.88;16.88;;;-1.50;99.90;;;;;;6250763;22;20022;-86
2023/03/01 08:00:11;;;;;;;26.77;15.85;;;-1.40;99.90;;;;;;6305172;22;20094;-86
2023/03/01 08:02:36;;;;;;;27.40;15.20;;;-1.30;99.90;;;;;;6304798;22;20026;-86
2023/03/01 08:05:02;;;;;;;28.60;16.50;;;-1.20;99.90;;;;;;6277960;22;20019;-86
2023/03/01 08:07:28;;;;;;;31.67;16.77;;;-1.10;99.90;;;;;;6307666;22;20011;-86
2023/03/01 08:09:54;;;;;;;31.40;16.45;;;-1.00;99.90;;;;;;6278619;22;20076;-86
2023/03/01 08:12:19;;;;;;;30.00;16.95;;;-0.90;99.90;;;;;;6277743;22;20542;-86
2023/03/01 08:14:45;;;;;;;29.85;17.60;;;-0.80;99.90;;;;;;6276523;22;20038;-86
2023/03/01 08:17:13;;;;;;;36.40;18.88;;;-0.60;99.90;;;;;;6277359;22;20019;-86
2023/03/01 08:19:39;;;;;;;35.47;19.15;;;-0.50;99.90;;;;;;6276379;22;20086;-86
2023/03/01 08:22:04;;;;;;;36.08;21.17;;;-0.40;99.90;;;;;;6306421;22;20388;-86
2023/03/01 08:24:30;;;;;;;39.20;23.13;;;-0.40;99.90;;;;;;6253861;22;20018;-86
2023/03/01 08:26:56;;;;;;;40.97;24.45;;;-0.20;99.90;;;;;;6278711;22;20025;-86
2023/03/01 08:29:24;;;;;;;39.03;22.30;;;-0.10;99.90;;;;;;6306668;22;20007;-86
2023/03/01 08:31:50;;;;;;;42.03;24.60;;;0.00;99.90;;;;;;6306216;22;20065;-86
2023/03/01 08:34:17;;;;;;;40.15;24.05;;;0.10;99.90;;;;;;6279265;22;20011;-86
2023/03/01 08:36:45;;;;;;;39.25;24.70;;;0.30;99.90;;;;;;6278492;22;20015;-86
2023/03/01 08:39:13;;;;;;;41.28;24.73;;;0.40;99.90;;;;;;6306013;22;20088;-86
2023/03/01 08:41:39;;;;;;;39.63;22.88;;;0.50;99.90;;;;;;6306067;22;20015;-86
2023/03/01 08:44:06;;;;;;;37.28;25.02;;;0.60;99.90;;;;;;6279002;22;20064;-86
2023/03/01 08:46:35;;;;;;;37.90;23.27;;;0.80;99.90;;;;;;6278628;22;20023;-86
2023/03/01 08:49:05;;;;;;;39.42;23.15;;;0.90;99.90;;;;;;6253094;22;20015;-86
2023/03/01 08:51:32;;;;;;;38.30;24.00;;;1.00;99.90;;;;;;6279152;22;20012;-87
2023/03/01 08:53:58;;;;;;;42.90;26.33;;;1.00;99.90;;;;;;6277635;22;20016;-87
2023/03/01 08:56:23;;;;;;;46.42;26.88;;;1.10;99.90;;;;;;6279114;22;20015;-87
2023/03/01 08:58:49;;;;;;;41.45;24.88;;;1.20;99.90;;;;;;6277990;22;20511;-86
2023/03/01 09:01:17;;;;;;;45.40;26.20;;;1.30;99.90;;;;;;6306536;22;20082;-87
2023/03/01 09:03:45;;;;;;;36.00;23.25;;;1.40;99.90;;;;;;6278242;22;20057;-87
2023/03/01 09:06:11;;;;;;;36.72;23.17;;;1.50;99.90;;;;;;6281439;22;20007;-85
2023/03/01 09:08:47;;;;;;;36.17;23.08;;;1.50;99.90;;;;;;6281047;22;20019;-86
2023/03/01 09:11:17;;;;;;;41.38;26.48;;;1.70;99.90;;;;;;6306978;22;20033;-87
2023/03/01 09:13:44;;;;;;;40.47;25.63;;;1.80;99.90;;;;;;6305719;22;20015;-87
2023/03/01 09:16:12;;;;;;;40.08;24.42;;;1.90;99.90;;;;;;6279560;22;20011;-87
2023/03/01 09:18:38;;;;;;;35.70;22.45;;;2.00;99.90;;;;;;6307330;22;20137;-86
2023/03/01 09:21:23;;;;;;;37.88;23.02;;;2.10;99.90;;;;;;6280695;22;20019;-86
2023/03/01 09:23:49;;;;;;;35.85;21.75;;;2.20;99.90;;;;;;6307490;22;20015;-86
2023/03/01 09:26:18;;;;;;;37.53;22.65;;;2.40;99.90;;;;;;6278850;22;20015;-86
2023/03/01 09:28:45;;;;;;;33.63;20.45;;;2.50;99.90;;;;;;6305385;22;20023;-86
2023/03/01 09:31:12;;;;;;;33.55;21.77;;;2.60;99.90;;;;;;6278647;22;20084;-86
2023/03/01 09:33:39;;;;;;;29.27;19.45;;;2.70;99.90;;;;;;6278613;22;20007;-86
2023/03/01 09:36:08;;;;;;;32.25;20.05;;;2.70;99.90;;;;;;6278447;22;20007;-86
2023/03/01 09:38:34;;;;;;;28.15;17.42;;;2.90;99.90;;;;;;6278646;22;20011;-86
2023/03/01 09:41:01;;;;;;;24.67;15.63;;;3.00;99.90;;;;;;6305754;22;20011;-86
2023/03/01 09:43:42;;;;;;;24.50;16.20;;;3.20;99.90;;;;;;6306327;22;20037;-86
2023/03/01 09:46:10;;;;;;;;;;;3.20;99.90;;;;;;6279047;22;20018;-86
2023/03/01 09:48:50;;;;;;;20.20;12.20;;;3.30;99.90;;;;;;6278683;22;19993;-86
2023/03/01 09:51:24;;;;;;;22.80;12.95;;;3.40;99.90;;;;;;6305513;22;20329;-86
2023/03/01 09:53:50;;;;;;;20.17;12.13;;;3.50;99.90;;;;;;6278015;22;20436;-86
2023/03/01 09:56:39;;;;;;;21.65;13.50;;;3.60;99.90;;;;;;6306602;22;20015;-86
2023/03/01 09:59:13;;;;;;;21.02;12.65;;;3.70;99.90;;;;;;6306482;22;20038;-86
2023/03/01 10:01:57;;;;;;;18.35;10.93;;;3.70;99.90;;;;;;6278230;22;20015;-86
2023/03/01 10:04:47;;;;;;;19.38;11.00;;;3.80;99.90;;;;;;6278381;22;20324;-86
2023/03/01 10:07:27;;;;;;;17.88;10.35;;;3.90;99.90;;;;;;6279286;22;20038;-86
2023/03/01 10:09:53;;;;;;;17.15;9.52;;;4.00;99.90;;;;;;6253891;22;20019;-85
2023/03/01 10:12:24;;;;;;;16.60;12.43;;;4.10;99.90;;;;;;6283114;22;20045;-85
2023/03/01 10:15:10;;;;;;;14.50;8.30;;;4.20;99.90;;;;;;6283978;22;20026;-86
2023/03/01 10:17:46;;;;;;;16.48;9.23;;;4.30;99.90;;;;;;6287692;22;20022;-85
2023/03/01 10:20:20;;;;;;;13.63;8.68;;;4.30;99.90;;;;;;6287665;22;20078;-86
2023/03/01 10:22:50;;;;;;;15.98;9.20;;;4.30;99.90;;;;;;6314411;22;20081;-86
2023/03/01 10:25:38;;;;;;;15.82;8.50;;;4.30;99.90;;;;;;6262294;22;20068;-85
2023/03/01 10:28:25;;;;;;;14.65;11.10;;;4.40;99.90;;;;;;6284592;22;20054;-86
2023/03/01 10:30:51;;;;;;;15.18;8.15;;;4.50;99.90;;;;;;6281263;22;20022;-85
2023/03/01 10:33:19;;;;;;;13.93;7.78;;;4.50;99.90;;;;;;6280856;22;20337;-85
2023/03/01 10:35:45;;;;;;;14.85;11.10;;;4.60;99.90;;;;;;6307156;22;20060;-85
2023/03/01 10:38:13;;;;;;;12.88;7.38;;;4.70;99.90;;;;;;6308126;22;20024;-85
2023/03/01 10:40:57;;;;;;;15.02;7.18;;;4.70;99.90;;;;;;6253572;22;20405;-86
2023/03/01 10:43:30;;;;;;;15.55;8.10;;;4.80;99.90;;;;;;6284881;22;20025;-85
2023/03/01 10:45:55;;;;;;;13.88;10.60;;;4.80;99.90;;;;;;6306226;22;20007;-85
2023/03/01 10:48:26;;;;;;;14.93;11.57;;;4.90;99.90;;;;;;6279877;22;20041;-85
2023/03/01 10:50:58;;;;;;;11.10;6.63;;;4.90;99.90;;;;;;6310538;22;20421;-86
2023/03/01 10:53:32;;;;;;;13.23;6.85;;;4.90;99.90;;;;;;6279208;22;20011;-85
2023/03/01 10:56:05;;;;;;;13.57;10.07;;;5.00;99.90;;;;;;6310477;22;20015;-85
2023/03/01 10:58:32;;;;;;;12.32;7.03;;;5.00;99.90;;;;;;6307683;22;20047;-86
2023/03/01 11:01:23;;;;;;;11.75;6.15;;;5.00;99.90;;;;;;6278166;22;20379;-85
2023/03/01 11:04:06;;;;;;;11.63;6.30;;;5.10;99.90;;;;;;6307564;22;20078;-85
2023/03/01 11:06:34;;;;;;;12.10;8.60;;;5.10;99.90;;;;;;6281346;22;20022;-85
2023/03/01 11:09:24;;;;;;;12.15;6.25;;;5.20;99.90;;;;;;6309502;22;20026;-86
2023/03/01 11:12:00;;;;;;;9.88;5.53;;;5.20;99.90;;;;;;6313256;22;20019;-85
2023/03/01 11:14:31;;;;;;;10.40;5.20;;;5.30;99.90;;;;;;6313450;22;20100;-86
2023/03/01 11:17:12;;;;;;;9.57;4.97;;;5.30;99.90;;;;;;6307386;22;20019;-85
2023/03/01 11:19:37;;;;;;;10.40;6.15;;;5.30;99.90;;;;;;6252793;22;20026;-85
2023/03/01 11:22:13;;;;;;;10.90;7.10;;;5.40;99.90;;;;;;6277588;22;20022;-86
2023/03/01 11:24:49;;;;;;;11.20;5.45;;;5.50;99.90;;;;;;6276902;22;20023;-87
2023/03/01 11:27:28;;;;;;;10.00;4.70;;;5.50;99.90;;;;;;6306300;22;20467;-85
2023/03/01 11:29:59;;;;;;;10.07;7.18;;;5.50;99.90;;;;;;6304951;22;20011;-86
2023/03/01 11:32:29;;;;;;;9.85;4.60;;;5.60;99.90;;;;;;6305263;22;20004;-86
2023/03/01 11:34:58;;;;;;;11.73;5.47;;;5.60;99.90;;;;;;6304994;22;20039;-86
2023/03/01 11:37:35;;;;;;;11.68;7.85;;;5.60;99.90;;;;;;6305378;22;20013;-86
2023/03/01 11:40:10;;;;;;;10.35;5.45;;;5.70;99.90;;;;;;6304979;22;20086;-85
2023/03/01 11:43:10;;;;;;;11.63;8.30;;;5.70;99.90;;;;;;6277532;22;20011;-86
2023/03/01 11:45:55;;;;;;;10.38;7.82;;;5.70;99.90;;;;;;6277546;22;20015;-86
2023/03/01 11:48:52;;;;;;;9.90;7.28;;;5.80;99.90;;;;;;6277965;22;20011;-86
2023/03/01 11:51:36;;;;;;;11.73;7.88;;;5.90;99.90;;;;;;6235963;22;20018;-86
2023/03/01 11:54:09;;;;;;;14.27;7.38;;;5.80;99.90;;;;;;6277443;22;20011;-86
2023/03/01 11:56:43;;;;;;;13.05;8.40;;;5.90;99.90;;;;;;6306353;22;20008;-86
2023/03/01 11:59:32;;;;;;;13.25;6.80;;;5.90;99.90;;;;;;6283402;22;20011;-86
2023/03/01 12:02:25;;;;;;;12.20;10.63;;;5.90;99.90;;;;;;6266677;22;20017;-86
2023/03/01 12:05:29;;;;;;;15.13;8.55;;;6.00;99.90;;;;;;6306477;22;20079;-85
2023/03/01 12:08:07;;;;;;;13.88;10.93;;;6.00;99.90;;;;;;6126854;23;20025;-86
2023/03/01 12:10:46;;;;;;;13.77;10.38;;;6.10;99.90;;;;;;6152850;23;20053;-86
2023/03/01 12:13:15;;;;;;;17.00;13.00;;;6.10;99.90;;;;;;6130505;23;20021;-87
2023/03/01 12:16:03;;;;;;;15.32;12.73;;;6.20;99.90;;;;;;6128926;23;20476;-86
2023/03/01 12:19:05;;;;;;;17.92;12.55;;;6.20;99.90;;;;;;6129327;23;20459;-86
2023/03/01 12:21:47;;;;;;;15.02;13.13;;;6.30;99.90;;;;;;6152307;23;20014;-87
2023/03/01 12:24:34;;;;;;;17.08;14.50;;;6.30;99.90;;;;;;6127730;23;20021;-86
2023/03/01 12:27:05;;;;;;;16.98;13.32;;;6.40;99.90;;;;;;6126859;23;20017;-86
2023/03/01 12:29:39;;;;;;;16.08;12.68;;;6.40;99.90;;;;;;6127203;23;20021;-86
2023/03/01 12:32:12;;;;;;;14.07;8.80;;;6.40;99.90;;;;;;6152595;23;20435;-85
2023/03/01 12:34:50;;;;;;;13.90;8.43;;;6.30;99.90;;;;;;6129450;23;20064;-86
2023/03/01 12:37:47;;;;;;;16.80;12.40;;;6.40;99.90;;;;;;6104246;23;20017;-86
2023/03/01 12:40:56;;;;;;;14.77;12.25;;;6.40;99.90;;;;;;6127442;23;20059;-86
2023/03/01 12:43:27;;;;;;;13.57;10.82;;;6.50;99.90;;;;;;6219371;22;20011;-86
2023/03/01 12:46:07;;;;;;;14.27;7.38;;;6.50;99.90;;;;;;6305382;22;20011;-86